sensor_id;sensor_type;location;lat;lon;timestamp;P1;durP1;ratioP1;P2;durP2;ratioP2
21233;SDS011;10774;42.178;26.578;2024-02-26T00:01:23;15.40;;;9.60;;
21233;SDS011;10774;42.178;26.578;2024-02-26T00:03:49;15.48;;;10.18;;
21233;SDS011;10774;42.178;26.578;2024-02-26T00:06:15;12.00;;;9.18;;
21233;SDS011;10774;42.178;26.578;2024-02-26T00:08:40;12.70;;;9.30;;
21233;SDS011;10774;42.178;26.578;2024-02-26T00:11:05;15.27;;;10.35;;
21233;SDS011;10774;42.178;26.578;2024-02-26T00:13:31;10.98;;;8.90;;
21233;SDS011;10774;42.178;26.578;2024-02-26T00:15:56;12.73;;;9.02;;
21233;SDS011;10774;42.178;26.578;2024-02-26T00:18:21;11.02;;;9.60;;
21233;SDS011;10774;42.178;26.578;2024-02-26T00:20:47;18.88;;;10.75;;
21233;SDS011;10774;42.178;26.578;2024-02-26T00:23:14;14.32;;;10.68;;
21233;SDS011;10774;42.178;26.578;2024-02-26T00:25:40;16.05;;;10.82;;
21233;SDS011;10774;42.178;26.578;2024-02-26T00:28:07;15.32;;;10.93;;
21233;SDS011;10774;42.178;26.578;2024-02-26T00:30:33;17.55;;;11.57;;
21233;SDS011;10774;42.178;26.578;2024-02-26T00:32:58;18.52;;;11.50;;
21233;SDS011;10774;42.178;26.578;2024-02-26T00:35:24;13.75;;;10.43;;
21233;SDS011;10774;42.178;26.578;2024-02-26T00:37:49;14.77;;;10.35;;
21233;SDS011;10774;42.178;26.578;2024-02-26T00:40:14;16.70;;;10.80;;
21233;SDS011;10774;42.178;26.578;2024-02-26T00:42:40;15.73;;;10.68;;
21233;SDS011;10774;42.178;26.578;2024-02-26T00:45:10;16.33;;;10.90;;
21233;SDS011;10774;42.178;26.578;2024-02-26T00:47:36;15.02;;;10.95;;
21233;SDS011;10774;42.178;26.578;2024-02-26T00:50:02;16.95;;;11.95;;
21233;SDS011;10774;42.178;26.578;2024-02-26T00:52:27;19.50;;;14.13;;
21233;SDS011;10774;42.178;26.578;2024-02-26T00:54:53;11.98;;;8.40;;
21233;SDS011;10774;42.178;26.578;2024-02-26T00:57:18;10.60;;;7.63;;
21233;SDS011;10774;42.178;26.578;2024-02-26T00:59:44;17.60;;;9.13;;
21233;SDS011;10774;42.178;26.578;2024-02-26T01:02:09;15.27;;;9.52;;
21233;SDS011;10774;42.178;26.578;2024-02-26T01:04:35;13.52;;;9.85;;
21233;SDS011;10774;42.178;26.578;2024-02-26T01:07:00;11.95;;;8.30;;
21233;SDS011;10774;42.178;26.578;2024-02-26T01:09:25;11.02;;;7.75;;
21233;SDS011;10774;42.178;26.578;2024-02-26T01:11:51;13.73;;;9.32;;
21233;SDS011;10774;42.178;26.578;2024-02-26T01:14:16;12.60;;;9.48;;
21233;SDS011;10774;42.178;26.578;2024-02-26T01:16:41;11.60;;;8.65;;
21233;SDS011;10774;42.178;26.578;2024-02-26T01:19:07;13.88;;;10.20;;
21233;SDS011;10774;42.178;26.578;2024-02-26T01:21:32;16.92;;;10.23;;
21233;SDS011;10774;42.178;26.578;2024-02-26T01:23:58;13.93;;;9.82;;
21233;SDS011;10774;42.178;26.578;2024-02-26T01:26:23;12.75;;;9.30;;
21233;SDS011;10774;42.178;26.578;2024-02-26T01:28:48;12.45;;;9.43;;
21233;SDS011;10774;42.178;26.578;2024-02-26T01:31:14;14.57;;;9.55;;
21233;SDS011;10774;42.178;26.578;2024-02-26T01:33:39;11.23;;;9.50;;
21233;SDS011;10774;42.178;26.578;2024-02-26T01:36:05;13.27;;;9.45;;
21233;SDS011;10774;42.178;26.578;2024-02-26T01:38:31;14.50;;;9.75;;
21233;SDS011;10774;42.178;26.578;2024-02-26T01:40:56;14.15;;;9.38;;
21233;SDS011;10774;42.178;26.578;2024-02-26T01:43:22;15.10;;;10.05;;
21233;SDS011;10774;42.178;26.578;2024-02-26T01:45:47;14.90;;;9.45;;
21233;SDS011;10774;42.178;26.578;2024-02-26T01:48:12;14.65;;;8.75;;
21233;SDS011;10774;42.178;26.578;2024-02-26T01:50:38;15.63;;;9.32;;
21233;SDS011;10774;42.178;26.578;2024-02-26T01:53:05;10.82;;;8.73;;
21233;SDS011;10774;42.178;26.578;2024-02-26T01:55:31;12.50;;;9.38;;
21233;SDS011;10774;42.178;26.578;2024-02-26T01:57:57;13.00;;;9.38;;
21233;SDS011;10774;42.178;26.578;2024-02-26T02:00:23;12.30;;;9.85;;
21233;SDS011;10774;42.178;26.578;2024-02-26T02:02:50;13.23;;;9.57;;
21233;SDS011;10774;42.178;26.578;2024-02-26T02:05:16;13.77;;;10.15;;
21233;SDS011;10774;42.178;26.578;2024-02-26T02:07:45;12.80;;;10.55;;
21233;SDS011;10774;42.178;26.578;2024-02-26T02:10:11;16.33;;;11.57;;
21233;SDS011;10774;42.178;26.578;2024-02-26T02:12:37;18.67;;;11.57;;
21233;SDS011;10774;42.178;26.578;2024-02-26T02:15:05;14.05;;;10.52;;
21233;SDS011;10774;42.178;26.578;2024-02-26T02:17:31;14.00;;;10.55;;
21233;SDS011;10774;42.178;26.578;2024-02-26T02:19:56;14.98;;;10.90;;
21233;SDS011;10774;42.178;26.578;2024-02-26T02:22:22;14.48;;;11.05;;
21233;SDS011;10774;42.178;26.578;2024-02-26T02:24:48;13.88;;;10.75;;
21233;SDS011;10774;42.178;26.578;2024-02-26T02:27:17;12.48;;;9.68;;
21233;SDS011;10774;42.178;26.578;2024-02-26T02:29:43;13.48;;;10.05;;
21233;SDS011;10774;42.178;26.578;2024-02-26T02:32:09;14.98;;;10.77;;
21233;SDS011;10774;42.178;26.578;2024-02-26T02:34:34;16.85;;;10.95;;
21233;SDS011;10774;42.178;26.578;2024-02-26T02:37:00;14.23;;;10.52;;
21233;SDS011;10774;42.178;26.578;2024-02-26T02:39:26;17.05;;;10.40;;
21233;SDS011;10774;42.178;26.578;2024-02-26T02:41:51;17.58;;;12.70;;
21233;SDS011;10774;42.178;26.578;2024-02-26T02:44:16;16.83;;;12.13;;
21233;SDS011;10774;42.178;26.578;2024-02-26T02:46:42;14.48;;;11.43;;
21233;SDS011;10774;42.178;26.578;2024-02-26T02:49:08;19.25;;;12.45;;
21233;SDS011;10774;42.178;26.578;2024-02-26T02:51:35;26.33;;;16.50;;
21233;SDS011;10774;42.178;26.578;2024-02-26T02:54:00;23.10;;;15.07;;
21233;SDS011;10774;42.178;26.578;2024-02-26T02:56:26;20.45;;;13.38;;
21233;SDS011;10774;42.178;26.578;2024-02-26T02:58:52;16.55;;;10.77;;
21233;SDS011;10774;42.178;26.578;2024-02-26T03:01:17;13.85;;;9.57;;
21233;SDS011;10774;42.178;26.578;2024-02-26T03:03:42;60.22;;;26.30;;
21233;SDS011;10774;42.178;26.578;2024-02-26T03:06:08;76.78;;;33.75;;
21233;SDS011;10774;42.178;26.578;2024-02-26T03:08:33;45.05;;;22.77;;
21233;SDS011;10774;42.178;26.578;2024-02-26T03:11:03;30.75;;;16.67;;
21233;SDS011;10774;42.178;26.578;2024-02-26T03:13:29;20.60;;;13.25;;
21233;SDS011;10774;42.178;26.578;2024-02-26T03:15:54;18.95;;;11.70;;
21233;SDS011;10774;42.178;26.578;2024-02-26T03:18:20;16.50;;;10.80;;
21233;SDS011;10774;42.178;26.578;2024-02-26T03:20:45;18.80;;;11.20;;
21233;SDS011;10774;42.178;26.578;2024-02-26T03:23:11;16.30;;;11.52;;
21233;SDS011;10774;42.178;26.578;2024-02-26T03:25:41;20.85;;;11.90;;
21233;SDS011;10774;42.178;26.578;2024-02-26T03:28:07;18.50;;;12.02;;
21233;SDS011;10774;42.178;26.578;2024-02-26T03:30:32;17.05;;;9.95;;
21233;SDS011;10774;42.178;26.578;2024-02-26T03:32:57;12.95;;;9.80;;
21233;SDS011;10774;42.178;26.578;2024-02-26T03:35:23;15.48;;;9.95;;
21233;SDS011;10774;42.178;26.578;2024-02-26T03:37:48;14.98;;;8.77;;
21233;SDS011;10774;42.178;26.578;2024-02-26T03:40:15;15.23;;;9.20;;
21233;SDS011;10774;42.178;26.578;2024-02-26T03:42:40;11.98;;;8.30;;
21233;SDS011;10774;42.178;26.578;2024-02-26T03:45:06;12.73;;;8.38;;
21233;SDS011;10774;42.178;26.578;2024-02-26T03:47:32;15.88;;;9.27;;
21233;SDS011;10774;42.178;26.578;2024-02-26T03:49:57;14.90;;;10.38;;
21233;SDS011;10774;42.178;26.578;2024-02-26T03:52:24;13.43;;;9.35;;
21233;SDS011;10774;42.178;26.578;2024-02-26T03:54:49;15.52;;;9.65;;
21233;SDS011;10774;42.178;26.578;2024-02-26T03:57:15;18.63;;;10.15;;
21233;SDS011;10774;42.178;26.578;2024-02-26T03:59:40;12.90;;;9.48;;
21233;SDS011;10774;42.178;26.578;2024-02-26T04:02:06;12.65;;;9.15;;
21233;SDS011;10774;42.178;26.578;2024-02-26T04:04:33;19.42;;;14.10;;
21233;SDS011;10774;42.178;26.578;2024-02-26T04:06:59;17.95;;;10.52;;
21233;SDS011;10774;42.178;26.578;2024-02-26T04:09:25;17.60;;;10.20;;
21233;SDS011;10774;42.178;26.578;2024-02-26T04:11:50;16.25;;;9.88;;
21233;SDS011;10774;42.178;26.578;2024-02-26T04:14:16;13.82;;;10.20;;
21233;SDS011;10774;42.178;26.578;2024-02-26T04:16:41;14.68;;;10.10;;
21233;SDS011;10774;42.178;26.578;2024-02-26T04:19:07;18.05;;;11.05;;
21233;SDS011;10774;42.178;26.578;2024-02-26T04:21:32;17.20;;;11.45;;
21233;SDS011;10774;42.178;26.578;2024-02-26T04:23:58;14.30;;;10.93;;
21233;SDS011;10774;42.178;26.578;2024-02-26T04:26:26;19.92;;;14.80;;
21233;SDS011;10774;42.178;26.578;2024-02-26T04:28:52;26.73;;;17.58;;
21233;SDS011;10774;42.178;26.578;2024-02-26T04:31:18;24.00;;;18.30;;
21233;SDS011;10774;42.178;26.578;2024-02-26T04:33:43;27.20;;;18.10;;
21233;SDS011;10774;42.178;26.578;2024-02-26T04:36:18;27.10;;;19.48;;
21233;SDS011;10774;42.178;26.578;2024-02-26T04:38:43;22.58;;;17.63;;
21233;SDS011;10774;42.178;26.578;2024-02-26T04:41:09;25.73;;;18.48;;
21233;SDS011;10774;42.178;26.578;2024-02-26T04:43:35;15.00;;;10.52;;
21233;SDS011;10774;42.178;26.578;2024-02-26T04:46:06;16.63;;;9.98;;
21233;SDS011;10774;42.178;26.578;2024-02-26T04:48:35;11.75;;;9.02;;
21233;SDS011;10774;42.178;26.578;2024-02-26T04:51:01;15.57;;;10.05;;
21233;SDS011;10774;42.178;26.578;2024-02-26T04:53:27;13.82;;;10.00;;
21233;SDS011;10774;42.178;26.578;2024-02-26T04:55:52;15.75;;;9.93;;
21233;SDS011;10774;42.178;26.578;2024-02-26T04:58:17;14.15;;;10.13;;
21233;SDS011;10774;42.178;26.578;2024-02-26T05:00:43;17.45;;;11.50;;
21233;SDS011;10774;42.178;26.578;2024-02-26T05:03:09;14.60;;;11.60;;
21233;SDS011;10774;42.178;26.578;2024-02-26T05:05:38;18.02;;;12.70;;
21233;SDS011;10774;42.178;26.578;2024-02-26T05:08:04;24.73;;;13.88;;
21233;SDS011;10774;42.178;26.578;2024-02-26T05:10:30;37.75;;;24.50;;
21233;SDS011;10774;42.178;26.578;2024-02-26T05:12:56;43.90;;;26.83;;
21233;SDS011;10774;42.178;26.578;2024-02-26T05:15:22;34.10;;;21.35;;
21233;SDS011;10774;42.178;26.578;2024-02-26T05:17:47;33.30;;;21.10;;
21233;SDS011;10774;42.178;26.578;2024-02-26T05:20:13;26.90;;;17.20;;
21233;SDS011;10774;42.178;26.578;2024-02-26T05:22:38;27.05;;;17.58;;
21233;SDS011;10774;42.178;26.578;2024-02-26T05:25:04;21.55;;;15.73;;
21233;SDS011;10774;42.178;26.578;2024-02-26T05:27:29;27.52;;;19.38;;
21233;SDS011;10774;42.178;26.578;2024-02-26T05:29:55;32.17;;;20.42;;
21233;SDS011;10774;42.178;26.578;2024-02-26T05:32:21;25.42;;;18.38;;
21233;SDS011;10774;42.178;26.578;2024-02-26T05:34:47;30.65;;;19.42;;
21233;SDS011;10774;42.178;26.578;2024-02-26T05:37:12;36.28;;;18.42;;
21233;SDS011;10774;42.178;26.578;2024-02-26T05:39:38;28.45;;;18.50;;
21233;SDS011;10774;42.178;26.578;2024-02-26T05:42:03;30.05;;;18.10;;
21233;SDS011;10774;42.178;26.578;2024-02-26T05:44:29;49.58;;;27.00;;
21233;SDS011;10774;42.178;26.578;2024-02-26T05:46:55;76.80;;;35.38;;
21233;SDS011;10774;42.178;26.578;2024-02-26T05:49:21;53.58;;;26.90;;
21233;SDS011;10774;42.178;26.578;2024-02-26T05:51:47;35.05;;;21.85;;
21233;SDS011;10774;42.178;26.578;2024-02-26T05:54:13;36.47;;;21.27;;
21233;SDS011;10774;42.178;26.578;2024-02-26T05:56:38;32.90;;;20.73;;
21233;SDS011;10774;42.178;26.578;2024-02-26T05:59:04;32.17;;;20.02;;
21233;SDS011;10774;42.178;26.578;2024-02-26T06:01:30;28.35;;;20.38;;
21233;SDS011;10774;42.178;26.578;2024-02-26T06:03:55;27.05;;;19.08;;
21233;SDS011;10774;42.178;26.578;2024-02-26T06:06:22;29.45;;;19.60;;
21233;SDS011;10774;42.178;26.578;2024-02-26T06:08:48;50.28;;;35.42;;
21233;SDS011;10774;42.178;26.578;2024-02-26T06:11:14;29.45;;;19.27;;
21233;SDS011;10774;42.178;26.578;2024-02-26T06:13:40;38.22;;;22.15;;
21233;SDS011;10774;42.178;26.578;2024-02-26T06:16:05;40.55;;;21.15;;
21233;SDS011;10774;42.178;26.578;2024-02-26T06:18:32;35.03;;;20.80;;
21233;SDS011;10774;42.178;26.578;2024-02-26T06:20:58;39.55;;;23.77;;
21233;SDS011;10774;42.178;26.578;2024-02-26T06:23:24;35.10;;;21.25;;
21233;SDS011;10774;42.178;26.578;2024-02-26T06:25:50;30.90;;;18.05;;
21233;SDS011;10774;42.178;26.578;2024-02-26T06:28:16;28.65;;;17.00;;
21233;SDS011;10774;42.178;26.578;2024-02-26T06:30:42;30.40;;;15.07;;
21233;SDS011;10774;42.178;26.578;2024-02-26T06:33:07;34.72;;;15.75;;
21233;SDS011;10774;42.178;26.578;2024-02-26T06:35:33;24.52;;;15.82;;
21233;SDS011;10774;42.178;26.578;2024-02-26T06:37:58;27.95;;;15.68;;
21233;SDS011;10774;42.178;26.578;2024-02-26T06:40:24;23.33;;;15.60;;
21233;SDS011;10774;42.178;26.578;2024-02-26T06:42:50;24.70;;;15.52;;
21233;SDS011;10774;42.178;26.578;2024-02-26T06:45:16;32.60;;;23.38;;
21233;SDS011;10774;42.178;26.578;2024-02-26T06:47:43;24.70;;;17.88;;
21233;SDS011;10774;42.178;26.578;2024-02-26T06:50:08;30.90;;;21.75;;
21233;SDS011;10774;42.178;26.578;2024-02-26T06:52:36;26.30;;;19.10;;
21233;SDS011;10774;42.178;26.578;2024-02-26T06:55:02;29.92;;;17.42;;
21233;SDS011;10774;42.178;26.578;2024-02-26T06:57:27;45.45;;;27.50;;
21233;SDS011;10774;42.178;26.578;2024-02-26T06:59:52;28.00;;;17.02;;
21233;SDS011;10774;42.178;26.578;2024-02-26T07:02:18;70.40;;;35.90;;
21233;SDS011;10774;42.178;26.578;2024-02-26T07:04:43;42.88;;;26.23;;
21233;SDS011;10774;42.178;26.578;2024-02-26T07:07:08;29.00;;;18.63;;
21233;SDS011;10774;42.178;26.578;2024-02-26T07:09:34;35.80;;;23.58;;
21233;SDS011;10774;42.178;26.578;2024-02-26T07:12:00;34.72;;;21.88;;
21233;SDS011;10774;42.178;26.578;2024-02-26T07:14:25;26.73;;;17.70;;
21233;SDS011;10774;42.178;26.578;2024-02-26T07:16:50;30.20;;;18.10;;
21233;SDS011;10774;42.178;26.578;2024-02-26T07:19:16;21.25;;;14.77;;
21233;SDS011;10774;42.178;26.578;2024-02-26T07:21:41;29.67;;;18.73;;
21233;SDS011;10774;42.178;26.578;2024-02-26T07:24:07;26.13;;;16.65;;
21233;SDS011;10774;42.178;26.578;2024-02-26T07:26:33;27.73;;;19.00;;
21233;SDS011;10774;42.178;26.578;2024-02-26T07:28:59;23.42;;;15.95;;
21233;SDS011;10774;42.178;26.578;2024-02-26T07:31:25;34.13;;;21.45;;
21233;SDS011;10774;42.178;26.578;2024-02-26T07:33:50;23.73;;;16.98;;
21233;SDS011;10774;42.178;26.578;2024-02-26T07:36:16;32.85;;;16.92;;
21233;SDS011;10774;42.178;26.578;2024-02-26T07:38:42;23.15;;;14.45;;
21233;SDS011;10774;42.178;26.578;2024-02-26T07:41:07;24.48;;;14.52;;
21233;SDS011;10774;42.178;26.578;2024-02-26T07:43:33;32.25;;;22.50;;
21233;SDS011;10774;42.178;26.578;2024-02-26T07:45:59;20.40;;;15.43;;
21233;SDS011;10774;42.178;26.578;2024-02-26T07:48:24;22.55;;;15.80;;
21233;SDS011;10774;42.178;26.578;2024-02-26T07:50:50;23.10;;;16.02;;
21233;SDS011;10774;42.178;26.578;2024-02-26T07:53:15;37.20;;;25.80;;
21233;SDS011;10774;42.178;26.578;2024-02-26T07:55:41;26.23;;;17.88;;
21233;SDS011;10774;42.178;26.578;2024-02-26T07:58:06;44.65;;;28.83;;
21233;SDS011;10774;42.178;26.578;2024-02-26T08:00:32;50.20;;;30.95;;
21233;SDS011;10774;42.178;26.578;2024-02-26T08:02:57;30.38;;;18.17;;
21233;SDS011;10774;42.178;26.578;2024-02-26T08:05:23;24.95;;;15.82;;
21233;SDS011;10774;42.178;26.578;2024-02-26T08:07:49;21.98;;;13.63;;
21233;SDS011;10774;42.178;26.578;2024-02-26T08:10:18;19.40;;;14.55;;
21233;SDS011;10774;42.178;26.578;2024-02-26T08:12:46;24.40;;;14.85;;
21233;SDS011;10774;42.178;26.578;2024-02-26T08:15:11;22.45;;;13.80;;
21233;SDS011;10774;42.178;26.578;2024-02-26T08:17:37;20.98;;;12.93;;
21233;SDS011;10774;42.178;26.578;2024-02-26T08:20:02;23.38;;;14.80;;
21233;SDS011;10774;42.178;26.578;2024-02-26T08:22:29;24.80;;;16.75;;
21233;SDS011;10774;42.178;26.578;2024-02-26T08:24:55;21.63;;;14.95;;
21233;SDS011;10774;42.178;26.578;2024-02-26T08:27:20;18.67;;;12.95;;
21233;SDS011;10774;42.178;26.578;2024-02-26T08:29:46;19.10;;;14.95;;
21233;SDS011;10774;42.178;26.578;2024-02-26T08:32:11;20.02;;;13.57;;
21233;SDS011;10774;42.178;26.578;2024-02-26T08:34:36;20.38;;;13.55;;
21233;SDS011;10774;42.178;26.578;2024-02-26T08:37:02;21.65;;;13.68;;
21233;SDS011;10774;42.178;26.578;2024-02-26T08:39:28;22.52;;;14.02;;
21233;SDS011;10774;42.178;26.578;2024-02-26T08:41:53;19.33;;;12.75;;
21233;SDS011;10774;42.178;26.578;2024-02-26T08:44:19;23.70;;;14.80;;
21233;SDS011;10774;42.178;26.578;2024-02-26T08:46:44;129.68;;;53.80;;
21233;SDS011;10774;42.178;26.578;2024-02-26T08:49:11;39.58;;;20.90;;
21233;SDS011;10774;42.178;26.578;2024-02-26T08:51:40;25.30;;;14.00;;
21233;SDS011;10774;42.178;26.578;2024-02-26T08:54:07;46.85;;;20.55;;
21233;SDS011;10774;42.178;26.578;2024-02-26T08:56:32;37.38;;;19.42;;
21233;SDS011;10774;42.178;26.578;2024-02-26T08:58:57;25.67;;;14.55;;
21233;SDS011;10774;42.178;26.578;2024-02-26T09:01:28;15.82;;;10.95;;
21233;SDS011;10774;42.178;26.578;2024-02-26T09:03:54;16.88;;;11.02;;
21233;SDS011;10774;42.178;26.578;2024-02-26T09:06:19;16.95;;;10.52;;
21233;SDS011;10774;42.178;26.578;2024-02-26T09:08:45;15.57;;;11.38;;
21233;SDS011;10774;42.178;26.578;2024-02-26T09:11:10;17.77;;;12.90;;
21233;SDS011;10774;42.178;26.578;2024-02-26T09:13:36;24.20;;;13.05;;
21233;SDS011;10774;42.178;26.578;2024-02-26T09:16:01;18.10;;;12.65;;
21233;SDS011;10774;42.178;26.578;2024-02-26T09:18:27;15.38;;;11.50;;
21233;SDS011;10774;42.178;26.578;2024-02-26T09:20:54;16.58;;;11.35;;
21233;SDS011;10774;42.178;26.578;2024-02-26T09:23:19;15.75;;;10.90;;
21233;SDS011;10774;42.178;26.578;2024-02-26T09:25:45;20.20;;;11.00;;
21233;SDS011;10774;42.178;26.578;2024-02-26T09:28:10;21.38;;;10.05;;
21233;SDS011;10774;42.178;26.578;2024-02-26T09:30:35;14.15;;;10.43;;
21233;SDS011;10774;42.178;26.578;2024-02-26T09:33:01;16.80;;;10.70;;
21233;SDS011;10774;42.178;26.578;2024-02-26T09:35:26;16.25;;;10.38;;
21233;SDS011;10774;42.178;26.578;2024-02-26T09:37:52;17.08;;;10.45;;
21233;SDS011;10774;42.178;26.578;2024-02-26T09:40:17;17.80;;;10.60;;
21233;SDS011;10774;42.178;26.578;2024-02-26T09:42:44;15.15;;;9.10;;
21233;SDS011;10774;42.178;26.578;2024-02-26T09:45:21;15.50;;;9.88;;
21233;SDS011;10774;42.178;26.578;2024-02-26T09:47:49;14.65;;;9.43;;
21233;SDS011;10774;42.178;26.578;2024-02-26T09:50:16;14.38;;;9.18;;
21233;SDS011;10774;42.178;26.578;2024-02-26T09:52:43;11.95;;;8.32;;
21233;SDS011;10774;42.178;26.578;2024-02-26T09:55:08;13.93;;;8.25;;
21233;SDS011;10774;42.178;26.578;2024-02-26T09:57:37;10.30;;;7.57;;
21233;SDS011;10774;42.178;26.578;2024-02-26T10:00:06;11.48;;;8.05;;
21233;SDS011;10774;42.178;26.578;2024-02-26T10:02:35;12.55;;;8.35;;
21233;SDS011;10774;42.178;26.578;2024-02-26T10:05:08;18.40;;;10.88;;
21233;SDS011;10774;42.178;26.578;2024-02-26T10:07:37;17.10;;;10.68;;
21233;SDS011;10774;42.178;26.578;2024-02-26T10:10:03;29.13;;;19.92;;
21233;SDS011;10774;42.178;26.578;2024-02-26T10:12:29;29.00;;;15.25;;
21233;SDS011;10774;42.178;26.578;2024-02-26T10:14:56;55.70;;;28.60;;
21233;SDS011;10774;42.178;26.578;2024-02-26T10:17:21;60.78;;;31.88;;
21233;SDS011;10774;42.178;26.578;2024-02-26T10:19:47;16.70;;;11.40;;
21233;SDS011;10774;42.178;26.578;2024-02-26T10:22:12;18.13;;;10.63;;
21233;SDS011;10774;42.178;26.578;2024-02-26T10:24:38;41.08;;;20.77;;
21233;SDS011;10774;42.178;26.578;2024-02-26T10:27:03;25.92;;;16.02;;
21233;SDS011;10774;42.178;26.578;2024-02-26T10:29:30;20.52;;;12.93;;
21233;SDS011;10774;42.178;26.578;2024-02-26T10:31:56;15.70;;;8.98;;
21233;SDS011;10774;42.178;26.578;2024-02-26T10:34:22;17.08;;;10.90;;
21233;SDS011;10774;42.178;26.578;2024-02-26T10:36:48;14.55;;;10.18;;
21233;SDS011;10774;42.178;26.578;2024-02-26T10:39:14;17.85;;;9.95;;
21233;SDS011;10774;42.178;26.578;2024-02-26T10:41:41;16.90;;;12.30;;
21233;SDS011;10774;42.178;26.578;2024-02-26T10:44:10;12.93;;;9.10;;
21233;SDS011;10774;42.178;26.578;2024-02-26T10:46:38;12.50;;;7.45;;
21233;SDS011;10774;42.178;26.578;2024-02-26T10:49:05;12.52;;;7.75;;
21233;SDS011;10774;42.178;26.578;2024-02-26T10:51:33;12.73;;;7.60;;
21233;SDS011;10774;42.178;26.578;2024-02-26T10:54:02;15.52;;;9.77;;
21233;SDS011;10774;42.178;26.578;2024-02-26T10:56:33;13.90;;;8.10;;
21233;SDS011;10774;42.178;26.578;2024-02-26T10:58:59;14.38;;;6.85;;
21233;SDS011;10774;42.178;26.578;2024-02-26T11:01:26;12.95;;;7.75;;
21233;SDS011;10774;42.178;26.578;2024-02-26T11:03:54;16.00;;;10.73;;
21233;SDS011;10774;42.178;26.578;2024-02-26T11:06:21;24.35;;;14.27;;
21233;SDS011;10774;42.178;26.578;2024-02-26T11:08:50;33.53;;;17.33;;
21233;SDS011;10774;42.178;26.578;2024-02-26T11:11:16;44.83;;;20.55;;
21233;SDS011;10774;42.178;26.578;2024-02-26T11:13:44;59.47;;;24.85;;
21233;SDS011;10774;42.178;26.578;2024-02-26T11:16:14;26.20;;;18.40;;
21233;SDS011;10774;42.178;26.578;2024-02-26T11:18:43;13.77;;;10.90;;
21233;SDS011;10774;42.178;26.578;2024-02-26T11:21:20;12.88;;;7.47;;
21233;SDS011;10774;42.178;26.578;2024-02-26T11:24:03;10.20;;;6.53;;
21233;SDS011;10774;42.178;26.578;2024-02-26T11:26:31;10.60;;;6.85;;
21233;SDS011;10774;42.178;26.578;2024-02-26T11:28:56;9.75;;;5.88;;
21233;SDS011;10774;42.178;26.578;2024-02-26T11:31:27;10.55;;;7.25;;
21233;SDS011;10774;42.178;26.578;2024-02-26T11:33:53;11.70;;;7.15;;
21233;SDS011;10774;42.178;26.578;2024-02-26T11:36:20;9.82;;;6.32;;
21233;SDS011;10774;42.178;26.578;2024-02-26T11:38:48;10.10;;;5.60;;
21233;SDS011;10774;42.178;26.578;2024-02-26T11:41:17;11.57;;;6.82;;
21233;SDS011;10774;42.178;26.578;2024-02-26T11:43:53;8.45;;;5.68;;
21233;SDS011;10774;42.178;26.578;2024-02-26T11:46:42;7.90;;;5.75;;
21233;SDS011;10774;42.178;26.578;2024-02-26T11:51:52;9.63;;;5.70;;
21233;SDS011;10774;42.178;26.578;2024-02-26T11:59:47;8.52;;;5.57;;
21233;SDS011;10774;42.178;26.578;2024-02-26T12:02:19;9.82;;;6.60;;
21233;SDS011;10774;42.178;26.578;2024-02-26T12:05:09;8.02;;;5.45;;
21233;SDS011;10774;42.178;26.578;2024-02-26T12:07:44;13.15;;;5.68;;
21233;SDS011;10774;42.178;26.578;2024-02-26T12:10:44;13.02;;;7.45;;
21233;SDS011;10774;42.178;26.578;2024-02-26T12:13:06;11.75;;;5.47;;
21233;SDS011;10774;42.178;26.578;2024-02-26T12:15:41;11.23;;;5.90;;
21233;SDS011;10774;42.178;26.578;2024-02-26T12:18:19;9.57;;;4.75;;
21233;SDS011;10774;42.178;26.578;2024-02-26T12:20:46;10.10;;;5.20;;
21233;SDS011;10774;42.178;26.578;2024-02-26T12:23:26;8.45;;;4.75;;
21233;SDS011;10774;42.178;26.578;2024-02-26T12:25:52;11.13;;;5.50;;
21233;SDS011;10774;42.178;26.578;2024-02-26T12:28:17;14.00;;;7.95;;
21233;SDS011;10774;42.178;26.578;2024-02-26T12:30:43;10.65;;;8.40;;
21233;SDS011;10774;42.178;26.578;2024-02-26T12:33:08;12.07;;;6.00;;
21233;SDS011;10774;42.178;26.578;2024-02-26T12:35:34;11.65;;;6.05;;
21233;SDS011;10774;42.178;26.578;2024-02-26T12:38:00;12.13;;;6.07;;
21233;SDS011;10774;42.178;26.578;2024-02-26T12:40:26;9.60;;;5.28;;
21233;SDS011;10774;42.178;26.578;2024-02-26T12:42:52;8.32;;;5.50;;
21233;SDS011;10774;42.178;26.578;2024-02-26T12:45:20;6.65;;;4.97;;
21233;SDS011;10774;42.178;26.578;2024-02-26T12:47:46;11.82;;;5.18;;
21233;SDS011;10774;42.178;26.578;2024-02-26T12:50:12;9.10;;;5.60;;
21233;SDS011;10774;42.178;26.578;2024-02-26T12:52:39;9.15;;;6.32;;
21233;SDS011;10774;42.178;26.578;2024-02-26T12:55:06;11.82;;;5.75;;
21233;SDS011;10774;42.178;26.578;2024-02-26T12:57:35;13.00;;;7.40;;
21233;SDS011;10774;42.178;26.578;2024-02-26T13:00:03;10.23;;;6.70;;
21233;SDS011;10774;42.178;26.578;2024-02-26T13:02:31;16.13;;;9.02;;
21233;SDS011;10774;42.178;26.578;2024-02-26T13:04:59;12.40;;;7.25;;
21233;SDS011;10774;42.178;26.578;2024-02-26T13:07:26;10.07;;;6.28;;
21233;SDS011;10774;42.178;26.578;2024-02-26T13:09:52;11.15;;;5.75;;
21233;SDS011;10774;42.178;26.578;2024-02-26T13:12:18;8.73;;;5.00;;
21233;SDS011;10774;42.178;26.578;2024-02-26T13:14:43;8.68;;;5.50;;
21233;SDS011;10774;42.178;26.578;2024-02-26T13:17:09;14.07;;;6.57;;
21233;SDS011;10774;42.178;26.578;2024-02-26T13:19:35;10.93;;;6.75;;
21233;SDS011;10774;42.178;26.578;2024-02-26T13:22:04;19.35;;;8.85;;
21233;SDS011;10774;42.178;26.578;2024-02-26T13:24:33;26.13;;;12.95;;
21233;SDS011;10774;42.178;26.578;2024-02-26T13:26:59;14.75;;;8.52;;
21233;SDS011;10774;42.178;26.578;2024-02-26T13:29:25;17.05;;;7.63;;
21233;SDS011;10774;42.178;26.578;2024-02-26T13:31:55;13.02;;;7.13;;
21233;SDS011;10774;42.178;26.578;2024-02-26T13:34:25;12.43;;;6.75;;
21233;SDS011;10774;42.178;26.578;2024-02-26T13:36:51;14.85;;;9.40;;
21233;SDS011;10774;42.178;26.578;2024-02-26T13:39:21;17.67;;;10.55;;
21233;SDS011;10774;42.178;26.578;2024-02-26T13:41:48;20.77;;;10.95;;
21233;SDS011;10774;42.178;26.578;2024-02-26T13:44:14;16.17;;;10.15;;
21233;SDS011;10774;42.178;26.578;2024-02-26T13:46:39;21.20;;;10.90;;
21233;SDS011;10774;42.178;26.578;2024-02-26T13:49:07;18.08;;;10.75;;
21233;SDS011;10774;42.178;26.578;2024-02-26T13:51:34;14.77;;;7.80;;
21233;SDS011;10774;42.178;26.578;2024-02-26T13:54:02;13.10;;;6.78;;
21233;SDS011;10774;42.178;26.578;2024-02-26T13:56:38;41.83;;;23.90;;
21233;SDS011;10774;42.178;26.578;2024-02-26T13:59:11;32.08;;;19.15;;
21233;SDS011;10774;42.178;26.578;2024-02-26T14:01:36;17.50;;;8.20;;
21233;SDS011;10774;42.178;26.578;2024-02-26T14:04:01;14.50;;;7.43;;
21233;SDS011;10774;42.178;26.578;2024-02-26T14:08:56;11.57;;;6.45;;
21233;SDS011;10774;42.178;26.578;2024-02-26T14:11:27;13.07;;;6.75;;
21233;SDS011;10774;42.178;26.578;2024-02-26T14:13:54;10.85;;;6.15;;
21233;SDS011;10774;42.178;26.578;2024-02-26T14:16:19;19.70;;;9.60;;
21233;SDS011;10774;42.178;26.578;2024-02-26T14:18:45;19.75;;;11.20;;
21233;SDS011;10774;42.178;26.578;2024-02-26T14:21:12;16.88;;;10.50;;